sensor_id;sensor_type;location;lat;lon;timestamp;P1;durP1;ratioP1;P2;durP2;ratioP2
1735;SDS011;865;53.672;10.250;2023-08-06T00:00:27;0.57;;;0.57;;
1735;SDS011;865;53.672;10.250;2023-08-06T00:02:54;0.57;;;0.57;;
1735;SDS011;865;53.672;10.250;2023-08-06T00:05:21;0.97;;;0.97;;
1735;SDS011;865;53.672;10.250;2023-08-06T00:07:48;0.90;;;0.90;;
1735;SDS011;865;53.672;10.250;2023-08-06T00:10:14;1.07;;;1.07;;
1735;SDS011;865;53.672;10.250;2023-08-06T00:12:42;0.70;;;0.70;;
1735;SDS011;865;53.672;10.250;2023-08-06T00:15:09;0.70;;;0.70;;
1735;SDS011;865;53.672;10.250;2023-08-06T00:17:37;0.57;;;0.57;;
1735;SDS011;865;53.672;10.250;2023-08-06T00:20:03;0.67;;;0.67;;
1735;SDS011;865;53.672;10.250;2023-08-06T00:22:32;0.50;;;0.50;;
1735;SDS011;865;53.672;10.250;2023-08-06T00:25:00;0.80;;;0.80;;
1735;SDS011;865;53.672;10.250;2023-08-06T00:27:26;1.17;;;1.17;;
1735;SDS011;865;53.672;10.250;2023-08-06T00:29:53;0.60;;;0.60;;
1735;SDS011;865;53.672;10.250;2023-08-06T00:32:21;0.60;;;0.60;;
1735;SDS011;865;53.672;10.250;2023-08-06T00:34:48;1.00;;;1.00;;
1735;SDS011;865;53.672;10.250;2023-08-06T00:37:18;1.10;;;1.10;;
1735;SDS011;865;53.672;10.250;2023-08-06T00:39:45;1.20;;;1.20;;
1735;SDS011;865;53.672;10.250;2023-08-06T00:42:12;0.53;;;0.53;;
1735;SDS011;865;53.672;10.250;2023-08-06T00:44:39;0.73;;;0.73;;
1735;SDS011;865;53.672;10.250;2023-08-06T00:47:06;0.67;;;0.67;;
1735;SDS011;865;53.672;10.250;2023-08-06T00:49:35;1.20;;;1.20;;
1735;SDS011;865;53.672;10.250;2023-08-06T00:52:06;0.90;;;0.90;;
1735;SDS011;865;53.672;10.250;2023-08-06T00:54:34;1.20;;;1.20;;
1735;SDS011;865;53.672;10.250;2023-08-06T00:57:01;0.87;;;0.87;;
1735;SDS011;865;53.672;10.250;2023-08-06T00:59:28;1.53;;;1.53;;
1735;SDS011;865;53.672;10.250;2023-08-06T01:01:56;0.77;;;0.77;;
1735;SDS011;865;53.672;10.250;2023-08-06T01:04:23;0.00;;;0.00;;
1735;SDS011;865;53.672;10.250;2023-08-06T01:10:10;0.00;;;0.00;;
1735;SDS011;865;53.672;10.250;2023-08-06T01:15:35;0.00;;;0.00;;
1735;SDS011;865;53.672;10.250;2023-08-06T01:18:10;0.00;;;0.00;;
1735;SDS011;865;53.672;10.250;2023-08-06T01:20:37;0.00;;;0.00;;
1735;SDS011;865;53.672;10.250;2023-08-06T01:23:03;0.00;;;0.00;;
1735;SDS011;865;53.672;10.250;2023-08-06T01:25:31;0.00;;;0.00;;
1735;SDS011;865;53.672;10.250;2023-08-06T01:28:11;0.00;;;0.00;;
1735;SDS011;865;53.672;10.250;2023-08-06T01:30:48;0.00;;;0.00;;
1735;SDS011;865;53.672;10.250;2023-08-06T01:33:17;0.00;;;0.00;;
1735;SDS011;865;53.672;10.250;2023-08-06T01:35:47;0.00;;;0.00;;
1735;SDS011;865;53.672;10.250;2023-08-06T01:38:15;0.00;;;0.00;;
1735;SDS011;865;53.672;10.250;2023-08-06T01:40:42;0.00;;;0.00;;
1735;SDS011;865;53.672;10.250;2023-08-06T01:43:08;0.00;;;0.00;;
1735;SDS011;865;53.672;10.250;2023-08-06T01:45:35;0.00;;;0.00;;
1735;SDS011;865;53.672;10.250;2023-08-06T01:48:01;0.00;;;0.00;;
1735;SDS011;865;53.672;10.250;2023-08-06T01:50:28;0.00;;;0.00;;
1735;SDS011;865;53.672;10.250;2023-08-06T01:52:54;0.00;;;0.00;;
1735;SDS011;865;53.672;10.250;2023-08-06T01:55:20;0.00;;;0.00;;
1735;SDS011;865;53.672;10.250;2023-08-06T01:57:47;0.00;;;0.00;;
1735;SDS011;865;53.672;10.250;2023-08-06T02:00:13;0.00;;;0.00;;
1735;SDS011;865;53.672;10.250;2023-08-06T02:02:40;0.00;;;0.00;;
1735;SDS011;865;53.672;10.250;2023-08-06T02:05:09;0.00;;;0.00;;
1735;SDS011;865;53.672;10.250;2023-08-06T02:07:36;0.00;;;0.00;;
1735;SDS011;865;53.672;10.250;2023-08-06T02:10:02;0.00;;;0.00;;
1735;SDS011;865;53.672;10.250;2023-08-06T02:12:29;0.00;;;0.00;;
1735;SDS011;865;53.672;10.250;2023-08-06T02:14:55;0.00;;;0.00;;
1735;SDS011;865;53.672;10.250;2023-08-06T02:17:21;0.00;;;0.00;;
1735;SDS011;865;53.672;10.250;2023-08-06T02:19:48;0.00;;;0.00;;
1735;SDS011;865;53.672;10.250;2023-08-06T02:22:14;0.00;;;0.00;;
1735;SDS011;865;53.672;10.250;2023-08-06T02:24:41;0.00;;;0.00;;
1735;SDS011;865;53.672;10.250;2023-08-06T02:27:07;0.00;;;0.00;;
1735;SDS011;865;53.672;10.250;2023-08-06T02:29:34;0.00;;;0.00;;
1735;SDS011;865;53.672;10.250;2023-08-06T02:32:01;0.00;;;0.00;;
1735;SDS011;865;53.672;10.250;2023-08-06T02:34:28;0.00;;;0.00;;
1735;SDS011;865;53.672;10.250;2023-08-06T02:36:55;0.00;;;0.00;;
1735;SDS011;865;53.672;10.250;2023-08-06T02:39:21;0.00;;;0.00;;
1735;SDS011;865;53.672;10.250;2023-08-06T02:41:48;0.00;;;0.00;;
1735;SDS011;865;53.672;10.250;2023-08-06T02:44:15;0.00;;;0.00;;
1735;SDS011;865;53.672;10.250;2023-08-06T02:46:41;0.00;;;0.00;;
1735;SDS011;865;53.672;10.250;2023-08-06T02:49:08;0.00;;;0.00;;
1735;SDS011;865;53.672;10.250;2023-08-06T02:51:34;0.00;;;0.00;;
1735;SDS011;865;53.672;10.250;2023-08-06T02:54:01;0.00;;;0.00;;
1735;SDS011;865;53.672;10.250;2023-08-06T02:56:27;0.00;;;0.00;;
1735;SDS011;865;53.672;10.250;2023-08-06T02:58:54;0.00;;;0.00;;
1735;SDS011;865;53.672;10.250;2023-08-06T03:01:20;0.00;;;0.00;;
1735;SDS011;865;53.672;10.250;2023-08-06T03:03:46;0.00;;;0.00;;
1735;SDS011;865;53.672;10.250;2023-08-06T03:06:13;0.00;;;0.00;;
1735;SDS011;865;53.672;10.250;2023-08-06T03:08:39;0.00;;;0.00;;
1735;SDS011;865;53.672;10.250;2023-08-06T03:11:06;0.00;;;0.00;;
1735;SDS011;865;53.672;10.250;2023-08-06T03:13:32;0.00;;;0.00;;
1735;SDS011;865;53.672;10.250;2023-08-06T03:15:59;0.00;;;0.00;;
1735;SDS011;865;53.672;10.250;2023-08-06T03:18:26;0.00;;;0.00;;
1735;SDS011;865;53.672;10.250;2023-08-06T03:20:53;0.00;;;0.00;;
1735;SDS011;865;53.672;10.250;2023-08-06T03:23:19;0.00;;;0.00;;
1735;SDS011;865;53.672;10.250;2023-08-06T03:25:46;0.00;;;0.00;;
1735;SDS011;865;53.672;10.250;2023-08-06T03:28:13;0.00;;;0.00;;
1735;SDS011;865;53.672;10.250;2023-08-06T03:30:39;0.00;;;0.00;;
1735;SDS011;865;53.672;10.250;2023-08-06T03:33:06;0.00;;;0.00;;
1735;SDS011;865;53.672;10.250;2023-08-06T03:35:32;0.00;;;0.00;;
1735;SDS011;865;53.672;10.250;2023-08-06T03:37:59;0.00;;;0.00;;
1735;SDS011;865;53.672;10.250;2023-08-06T03:40:25;0.00;;;0.00;;
1735;SDS011;865;53.672;10.250;2023-08-06T03:42:52;0.00;;;0.00;;
1735;SDS011;865;53.672;10.250;2023-08-06T03:45:18;0.00;;;0.00;;
1735;SDS011;865;53.672;10.250;2023-08-06T03:47:45;0.00;;;0.00;;
1735;SDS011;865;53.672;10.250;2023-08-06T03:50:11;0.00;;;0.00;;
1735;SDS011;865;53.672;10.250;2023-08-06T03:52:38;0.00;;;0.00;;
1735;SDS011;865;53.672;10.250;2023-08-06T03:55:04;0.00;;;0.00;;
1735;SDS011;865;53.672;10.250;2023-08-06T03:57:31;0.00;;;0.00;;
1735;SDS011;865;53.672;10.250;2023-08-06T03:59:57;0.00;;;0.00;;
1735;SDS011;865;53.672;10.250;2023-08-06T04:02:24;0.00;;;0.00;;
1735;SDS011;865;53.672;10.250;2023-08-06T04:04:50;0.00;;;0.00;;
1735;SDS011;865;53.672;10.250;2023-08-06T04:07:19;0.00;;;0.00;;
1735;SDS011;865;53.672;10.250;2023-08-06T04:09:53;0.00;;;0.00;;
1735;SDS011;865;53.672;10.250;2023-08-06T04:12:21;0.00;;;0.00;;
1735;SDS011;865;53.672;10.250;2023-08-06T04:14:48;0.00;;;0.00;;
1735;SDS011;865;53.672;10.250;2023-08-06T04:17:15;0.00;;;0.00;;
1735;SDS011;865;53.672;10.250;2023-08-06T04:19:42;0.00;;;0.00;;
1735;SDS011;865;53.672;10.250;2023-08-06T04:22:08;0.00;;;0.00;;
1735;SDS011;865;53.672;10.250;2023-08-06T04:24:35;0.00;;;0.00;;
1735;SDS011;865;53.672;10.250;2023-08-06T04:27:01;0.00;;;0.00;;
1735;SDS011;865;53.672;10.250;2023-08-06T04:29:28;0.00;;;0.00;;
1735;SDS011;865;53.672;10.250;2023-08-06T04:31:54;0.00;;;0.00;;
1735;SDS011;865;53.672;10.250;2023-08-06T04:34:21;0.00;;;0.00;;
1735;SDS011;865;53.672;10.250;2023-08-06T04:36:47;0.00;;;0.00;;
1735;SDS011;865;53.672;10.250;2023-08-06T04:39:14;0.00;;;0.00;;
1735;SDS011;865;53.672;10.250;2023-08-06T04:41:41;0.00;;;0.00;;
1735;SDS011;865;53.672;10.250;2023-08-06T04:44:07;0.00;;;0.00;;
1735;SDS011;865;53.672;10.250;2023-08-06T04:46:34;0.00;;;0.00;;
1735;SDS011;865;53.672;10.250;2023-08-06T04:49:00;0.00;;;0.00;;
1735;SDS011;865;53.672;10.250;2023-08-06T04:51:27;0.00;;;0.00;;
1735;SDS011;865;53.672;10.250;2023-08-06T04:53:54;0.00;;;0.00;;
1735;SDS011;865;53.672;10.250;2023-08-06T04:56:20;0.00;;;0.00;;
1735;SDS011;865;53.672;10.250;2023-08-06T04:58:47;0.00;;;0.00;;
1735;SDS011;865;53.672;10.250;2023-08-06T05:01:13;0.00;;;0.00;;
1735;SDS011;865;53.672;10.250;2023-08-06T05:03:40;0.00;;;0.00;;
1735;SDS011;865;53.672;10.250;2023-08-06T05:06:06;0.00;;;0.00;;
1735;SDS011;865;53.672;10.250;2023-08-06T05:08:33;0.00;;;0.00;;
1735;SDS011;865;53.672;10.250;2023-08-06T05:10:59;0.00;;;0.00;;
1735;SDS011;865;53.672;10.250;2023-08-06T05:13:26;0.00;;;0.00;;
1735;SDS011;865;53.672;10.250;2023-08-06T05:15:55;0.00;;;0.00;;
1735;SDS011;865;53.672;10.250;2023-08-06T05:18:22;0.00;;;0.00;;
1735;SDS011;865;53.672;10.250;2023-08-06T05:20:49;0.00;;;0.00;;
1735;SDS011;865;53.672;10.250;2023-08-06T05:23:16;0.00;;;0.00;;
1735;SDS011;865;53.672;10.250;2023-08-06T05:25:42;0.00;;;0.00;;
1735;SDS011;865;53.672;10.250;2023-08-06T05:28:09;0.00;;;0.00;;
1735;SDS011;865;53.672;10.250;2023-08-06T05:30:38;0.00;;;0.00;;
1735;SDS011;865;53.672;10.250;2023-08-06T05:33:05;0.00;;;0.00;;
1735;SDS011;865;53.672;10.250;2023-08-06T05:35:32;0.00;;;0.00;;
1735;SDS011;865;53.672;10.250;2023-08-06T05:37:59;0.00;;;0.00;;
1735;SDS011;865;53.672;10.250;2023-08-06T05:40:25;0.00;;;0.00;;
1735;SDS011;865;53.672;10.250;2023-08-06T05:42:53;0.00;;;0.00;;
1735;SDS011;865;53.672;10.250;2023-08-06T05:45:20;0.00;;;0.00;;
1735;SDS011;865;53.672;10.250;2023-08-06T05:47:50;0.00;;;0.00;;
1735;SDS011;865;53.672;10.250;2023-08-06T05:50:16;0.00;;;0.00;;
1735;SDS011;865;53.672;10.250;2023-08-06T05:52:43;0.00;;;0.00;;
1735;SDS011;865;53.672;10.250;2023-08-06T05:55:10;0.00;;;0.00;;
1735;SDS011;865;53.672;10.250;2023-08-06T05:57:36;0.00;;;0.00;;
1735;SDS011;865;53.672;10.250;2023-08-06T06:00:03;0.00;;;0.00;;
1735;SDS011;865;53.672;10.250;2023-08-06T06:02:32;0.00;;;0.00;;
1735;SDS011;865;53.672;10.250;2023-08-06T06:04:59;0.00;;;0.00;;
1735;SDS011;865;53.672;10.250;2023-08-06T06:07:25;0.00;;;0.00;;
1735;SDS011;865;53.672;10.250;2023-08-06T06:09:51;0.00;;;0.00;;
1735;SDS011;865;53.672;10.250;2023-08-06T06:12:18;0.00;;;0.00;;
1735;SDS011;865;53.672;10.250;2023-08-06T06:14:44;0.00;;;0.00;;
1735;SDS011;865;53.672;10.250;2023-08-06T06:17:11;0.00;;;0.00;;
1735;SDS011;865;53.672;10.250;2023-08-06T06:19:37;0.00;;;0.00;;
1735;SDS011;865;53.672;10.250;2023-08-06T06:22:04;0.00;;;0.00;;
1735;SDS011;865;53.672;10.250;2023-08-06T06:24:30;0.00;;;0.00;;
1735;SDS011;865;53.672;10.250;2023-08-06T06:26:57;0.00;;;0.00;;
1735;SDS011;865;53.672;10.250;2023-08-06T06:29:23;0.00;;;0.00;;
1735;SDS011;865;53.672;10.250;2023-08-06T06:31:50;0.00;;;0.00;;
1735;SDS011;865;53.672;10.250;2023-08-06T06:34:17;0.00;;;0.00;;
1735;SDS011;865;53.672;10.250;2023-08-06T06:36:44;0.00;;;0.00;;
1735;SDS011;865;53.672;10.250;2023-08-06T06:39:10;0.00;;;0.00;;
1735;SDS011;865;53.672;10.250;2023-08-06T06:41:36;0.00;;;0.00;;
1735;SDS011;865;53.672;10.250;2023-08-06T06:44:03;0.00;;;0.00;;
1735;SDS011;865;53.672;10.250;2023-08-06T06:46:30;0.00;;;0.00;;
1735;SDS011;865;53.672;10.250;2023-08-06T06:48:56;0.00;;;0.00;;
1735;SDS011;865;53.672;10.250;2023-08-06T06:51:23;0.00;;;0.00;;
1735;SDS011;865;53.672;10.250;2023-08-06T06:53:49;0.00;;;0.00;;
1735;SDS011;865;53.672;10.250;2023-08-06T06:56:16;0.00;;;0.00;;
1735;SDS011;865;53.672;10.250;2023-08-06T06:58:42;0.00;;;0.00;;
1735;SDS011;865;53.672;10.250;2023-08-06T07:01:09;0.00;;;0.00;;
1735;SDS011;865;53.672;10.250;2023-08-06T07:03:38;0.00;;;0.00;;
1735;SDS011;865;53.672;10.250;2023-08-06T07:06:04;0.00;;;0.00;;
1735;SDS011;865;53.672;10.250;2023-08-06T07:08:32;0.00;;;0.00;;
1735;SDS011;865;53.672;10.250;2023-08-06T07:11:00;0.00;;;0.00;;
1735;SDS011;865;53.672;10.250;2023-08-06T07:13:27;0.00;;;0.00;;
1735;SDS011;865;53.672;10.250;2023-08-06T07:15:54;0.00;;;0.00;;
1735;SDS011;865;53.672;10.250;2023-08-06T07:18:21;0.00;;;0.00;;
1735;SDS011;865;53.672;10.250;2023-08-06T07:20:52;0.00;;;0.00;;
1735;SDS011;865;53.672;10.250;2023-08-06T07:23:20;0.00;;;0.00;;
1735;SDS011;865;53.672;10.250;2023-08-06T07:25:47;0.00;;;0.00;;
1735;SDS011;865;53.672;10.250;2023-08-06T07:28:14;0.00;;;0.00;;
1735;SDS011;865;53.672;10.250;2023-08-06T07:30:42;0.00;;;0.00;;
1735;SDS011;865;53.672;10.250;2023-08-06T07:33:10;0.00;;;0.00;;
1735;SDS011;865;53.672;10.250;2023-08-06T07:35:37;0.00;;;0.00;;
1735;SDS011;865;53.672;10.250;2023-08-06T07:38:04;0.00;;;0.00;;
1735;SDS011;865;53.672;10.250;2023-08-06T07:40:31;0.00;;;0.00;;
1735;SDS011;865;53.672;10.250;2023-08-06T07:42:58;0.00;;;0.00;;
1735;SDS011;865;53.672;10.250;2023-08-06T07:45:24;0.00;;;0.00;;
1735;SDS011;865;53.672;10.250;2023-08-06T07:47:52;0.00;;;0.00;;
1735;SDS011;865;53.672;10.250;2023-08-06T07:50:19;0.00;;;0.00;;
1735;SDS011;865;53.672;10.250;2023-08-06T07:52:47;0.00;;;0.00;;
1735;SDS011;865;53.672;10.250;2023-08-06T07:55:13;0.00;;;0.00;;
1735;SDS011;865;53.672;10.250;2023-08-06T07:57:40;0.00;;;0.00;;
1735;SDS011;865;53.672;10.250;2023-08-06T08:00:06;0.00;;;0.00;;
1735;SDS011;865;53.672;10.250;2023-08-06T08:02:33;0.00;;;0.00;;
1735;SDS011;865;53.672;10.250;2023-08-06T08:05:00;0.00;;;0.00;;
1735;SDS011;865;53.672;10.250;2023-08-06T08:07:26;0.00;;;0.00;;
1735;SDS011;865;53.672;10.250;2023-08-06T08:09:54;0.00;;;0.00;;
1735;SDS011;865;53.672;10.250;2023-08-06T08:12:21;0.00;;;0.00;;
1735;SDS011;865;53.672;10.250;2023-08-06T08:14:48;0.00;;;0.00;;
1735;SDS011;865;53.672;10.250;2023-08-06T08:17:14;0.00;;;0.00;;
1735;SDS011;865;53.672;10.250;2023-08-06T08:19:41;0.00;;;0.00;;
1735;SDS011;865;53.672;10.250;2023-08-06T08:22:07;0.00;;;0.00;;
1735;SDS011;865;53.672;10.250;2023-08-06T08:24:34;0.00;;;0.00;;
1735;SDS011;865;53.672;10.250;2023-08-06T08:27:01;0.00;;;0.00;;
1735;SDS011;865;53.672;10.250;2023-08-06T08:29:27;0.00;;;0.00;;
1735;SDS011;865;53.672;10.250;2023-08-06T08:31:54;0.00;;;0.00;;
1735;SDS011;865;53.672;10.250;2023-08-06T08:34:21;0.00;;;0.00;;
1735;SDS011;865;53.672;10.250;2023-08-06T08:36:47;0.00;;;0.00;;
1735;SDS011;865;53.672;10.250;2023-08-06T08:39:13;0.00;;;0.00;;
1735;SDS011;865;53.672;10.250;2023-08-06T08:41:40;0.00;;;0.00;;
1735;SDS011;865;53.672;10.250;2023-08-06T08:44:08;0.00;;;0.00;;
1735;SDS011;865;53.672;10.250;2023-08-06T08:46:37;0.00;;;0.00;;
1735;SDS011;865;53.672;10.250;2023-08-06T08:49:06;0.00;;;0.00;;
1735;SDS011;865;53.672;10.250;2023-08-06T08:51:33;0.00;;;0.00;;
1735;SDS011;865;53.672;10.250;2023-08-06T08:54:04;0.00;;;0.00;;
1735;SDS011;865;53.672;10.250;2023-08-06T08:56:34;0.00;;;0.00;;
1735;SDS011;865;53.672;10.250;2023-08-06T08:59:00;0.00;;;0.00;;
1735;SDS011;865;53.672;10.250;2023-08-06T09:01:27;0.00;;;0.00;;
1735;SDS011;865;53.672;10.250;2023-08-06T09:03:55;0.00;;;0.00;;
1735;SDS011;865;53.672;10.250;2023-08-06T09:06:23;0.00;;;0.00;;
1735;SDS011;865;53.672;10.250;2023-08-06T09:08:58;0.00;;;0.00;;
1735;SDS011;865;53.672;10.250;2023-08-06T09:11:42;0.00;;;0.00;;
1735;SDS011;865;53.672;10.250;2023-08-06T09:14:10;0.00;;;0.00;;
1735;SDS011;865;53.672;10.250;2023-08-06T09:16:38;0.00;;;0.00;;
1735;SDS011;865;53.672;10.250;2023-08-06T09:19:08;0.00;;;0.00;;
1735;SDS011;865;53.672;10.250;2023-08-06T09:21:39;0.00;;;0.00;;
1735;SDS011;865;53.672;10.250;2023-08-06T09:24:09;0.00;;;0.00;;
1735;SDS011;865;53.672;10.250;2023-08-06T09:26:41;0.00;;;0.00;;
1735;SDS011;865;53.672;10.250;2023-08-06T09:29:10;0.00;;;0.00;;
1735;SDS011;865;53.672;10.250;2023-08-06T09:31:41;0.00;;;0.00;;
1735;SDS011;865;53.672;10.250;2023-08-06T09:34:23;0.00;;;0.00;;
1735;SDS011;865;53.672;10.250;2023-08-06T09:36:50;0.00;;;0.00;;
1735;SDS011;865;53.672;10.250;2023-08-06T09:39:21;0.00;;;0.00;;
1735;SDS011;865;53.672;10.250;2023-08-06T09:41:55;0.00;;;0.00;;
1735;SDS011;865;53.672;10.250;2023-08-06T09:44:23;0.00;;;0.00;;
1735;SDS011;865;53.672;10.250;2023-08-06T09:46:52;0.00;;;0.00;;
1735;SDS011;865;53.672;10.250;2023-08-06T09:49:20;0.00;;;0.00;;
1735;SDS011;865;53.672;10.250;2023-08-06T09:51:53;0.00;;;0.00;;
1735;SDS011;865;53.672;10.250;2023-08-06T09:54:23;0.00;;;0.00;;
1735;SDS011;865;53.672;10.250;2023-08-06T09:56:53;0.00;;;0.00;;
1735;SDS011;865;53.672;10.250;2023-08-06T09:59:21;0.00;;;0.00;;
1735;SDS011;865;53.672;10.250;2023-08-06T10:01:49;0.00;;;0.00;;
1735;SDS011;865;53.672;10.250;2023-08-06T10:04:16;0.00;;;0.00;;
1735;SDS011;865;53.672;10.250;2023-08-06T10:06:50;0.00;;;0.00;;
1735;SDS011;865;53.672;10.250;2023-08-06T10:09:18;0.00;;;0.00;;
1735;SDS011;865;53.672;10.250;2023-08-06T10:11:50;0.00;;;0.00;;
1735;SDS011;865;53.672;10.250;2023-08-06T10:14:21;0.00;;;0.00;;
1735;SDS011;865;53.672;10.250;2023-08-06T10:16:51;0.00;;;0.00;;
1735;SDS011;865;53.672;10.250;2023-08-06T10:19:19;0.00;;;0.00;;
1735;SDS011;865;53.672;10.250;2023-08-06T10:22:09;0.00;;;0.00;;
1735;SDS011;865;53.672;10.250;2023-08-06T10:30:26;0.00;;;0.00;;
1735;SDS011;865;53.672;10.250;2023-08-06T10:32:57;0.00;;;0.00;;
1735;SDS011;865;53.672;10.250;2023-08-06T10:40:31;0.00;;;0.00;;
1735;SDS011;865;53.672;10.250;2023-08-06T10:43:00;0.00;;;0.00;;
1735;SDS011;865;53.672;10.250;2023-08-06T10:45:27;0.00;;;0.00;;
1735;SDS011;865;53.672;10.250;2023-08-06T10:47:55;0.00;;;0.00;;
1735;SDS011;865;53.672;10.250;2023-08-06T10:50:25;0.00;;;0.00;;
1735;SDS011;865;53.672;10.250;2023-08-06T10:52:52;0.00;;;0.00;;
1735;SDS011;865;53.672;10.250;2023-08-06T10:55:24;0.00;;;0.00;;
1735;SDS011;865;53.672;10.250;2023-08-06T10:57:55;0.00;;;0.00;;
1735;SDS011;865;53.672;10.250;2023-08-06T11:00:22;0.00;;;0.00;;
1735;SDS011;865;53.672;10.250;2023-08-06T11:02:52;0.00;;;0.00;;
1735;SDS011;865;53.672;10.250;2023-08-06T11:05:19;0.00;;;0.00;;
1735;SDS011;865;53.672;10.250;2023-08-06T11:07:46;0.00;;;0.00;;
1735;SDS011;865;53.672;10.250;2023-08-06T11:10:14;0.00;;;0.00;;
1735;SDS011;865;53.672;10.250;2023-08-06T11:12:40;0.00;;;0.00;;
1735;SDS011;865;53.672;10.250;2023-08-06T11:15:07;0.00;;;0.00;;
1735;SDS011;865;53.672;10.250;2023-08-06T11:17:34;0.00;;;0.00;;
1735;SDS011;865;53.672;10.250;2023-08-06T11:20:03;0.00;;;0.00;;
1735;SDS011;865;53.672;10.250;2023-08-06T11:22:31;0.00;;;0.00;;
1735;SDS011;865;53.672;10.250;2023-08-06T11:24:57;0.00;;;0.00;;
1735;SDS011;865;53.672;10.250;2023-08-06T11:27:25;0.00;;;0.00;;
1735;SDS011;865;53.672;10.250;2023-08-06T11:29:54;0.00;;;0.00;;
1735;SDS011;865;53.672;10.250;2023-08-06T11:32:20;0.00;;;0.00;;
1735;SDS011;865;53.672;10.250;2023-08-06T11:34:47;0.00;;;0.00;;
1735;SDS011;865;53.672;10.250;2023-08-06T11:37:13;0.00;;;0.00;;
1735;SDS011;865;53.672;10.250;2023-08-06T11:39:44;0.00;;;0.00;;
1735;SDS011;865;53.672;10.250;2023-08-06T11:42:13;0.00;;;0.00;;
1735;SDS011;865;53.672;10.250;2023-08-06T11:44:40;0.00;;;0.00;;
1735;SDS011;865;53.672;10.250;2023-08-06T11:47:15;0.00;;;0.00;;
1735;SDS011;865;53.672;10.250;2023-08-06T11:49:46;0.00;;;0.00;;
1735;SDS011;865;53.672;10.250;2023-08-06T11:52:23;0.00;;;0.00;;
1735;SDS011;865;53.672;10.250;2023-08-06T11:57:28;0.00;;;0.00;;
1735;SDS011;865;53.672;10.250;2023-08-06T12:00:05;0.00;;;0.00;;
1735;SDS011;865;53.672;10.250;2023-08-06T12:02:34;0.00;;;0.00;;
1735;SDS011;865;53.672;10.250;2023-08-06T12:07:42;0.00;;;0.00;;
1735;SDS011;865;53.672;10.250;2023-08-06T12:10:10;0.00;;;0.00;;
1735;SDS011;865;53.672;10.250;2023-08-06T12:12:37;0.00;;;0.00;;
1735;SDS011;865;53.672;10.250;2023-08-06T12:15:05;0.00;;;0.00;;
1735;SDS011;865;53.672;10.250;2023-08-06T12:17:32;0.00;;;0.00;;
1735;SDS011;865;53.672;10.250;2023-08-06T12:19:59;0.00;;;0.00;;
1735;SDS011;865;53.672;10.250;2023-08-06T12:22:26;0.00;;;0.00;;
1735;SDS011;865;53.672;10.250;2023-08-06T12:24:53;0.00;;;0.00;;
1735;SDS011;865;53.672;10.250;2023-08-06T12:27:19;0.00;;;0.00;;
1735;SDS011;865;53.672;10.250;2023-08-06T12:29:49;0.00;;;0.00;;
1735;SDS011;865;53.672;10.250;2023-08-06T12:32:15;0.00;;;0.00;;
1735;SDS011;865;53.672;10.250;2023-08-06T12:34:42;0.00;;;0.00;;
1735;SDS011;865;53.672;10.250;2023-08-06T12:37:18;0.00;;;0.00;;
1735;SDS011;865;53.672;10.250;2023-08-06T12:39:45;0.00;;;0.00;;
1735;SDS011;865;53.672;10.250;2023-08-06T12:42:11;0.00;;;0.00;;
1735;SDS011;865;53.672;10.250;2023-08-06T12:44:38;0.00;;;0.00;;
1735;SDS011;865;53.672;10.250;2023-08-06T12:47:04;0.00;;;0.00;;
1735;SDS011;865;53.672;10.250;2023-08-06T12:49:31;0.00;;;0.00;;
1735;SDS011;865;53.672;10.250;2023-08-06T12:51:59;0.00;;;0.00;;
1735;SDS011;865;53.672;10.250;2023-08-06T12:54:31;0.00;;;0.00;;
1735;SDS011;865;53.672;10.250;2023-08-06T12:57:02;0.00;;;0.00;;
1735;SDS011;865;53.672;10.250;2023-08-06T12:59:30;0.00;;;0.00;;
1735;SDS011;865;53.672;10.250;2023-08-06T13:01:57;0.00;;;0.00;;
1735;SDS011;865;53.672;10.250;2023-08-06T13:04:24;0.00;;;0.00;;
1735;SDS011;865;53.672;10.250;2023-08-06T13:06:51;0.00;;;0.00;;
1735;SDS011;865;53.672;10.250;2023-08-06T13:09:17;0.00;;;0.00;;
1735;SDS011;865;53.672;10.250;2023-08-06T13:11:43;0.00;;;0.00;;
1735;SDS011;865;53.672;10.250;2023-08-06T13:14:13;0.00;;;0.00;;
1735;SDS011;865;53.672;10.250;2023-08-06T13:16:41;0.00;;;0.00;;
1735;SDS011;865;53.672;10.250;2023-08-06T13:19:09;0.00;;;0.00;;
1735;SDS011;865;53.672;10.250;2023-08-06T13:21:58;0.00;;;0.00;;
1735;SDS011;865;53.672;10.250;2023-08-06T13:24:27;0.00;;;0.00;;
1735;SDS011;865;53.672;10.250;2023-08-06T13:26:53;0.00;;;0.00;;
1735;SDS011;865;53.672;10.250;2023-08-06T13:29:21;0.00;;;0.00;;
1735;SDS011;865;53.672;10.250;2023-08-06T13:31:47;0.00;;;0.00;;
1735;SDS011;865;53.672;10.250;2023-08-06T13:34:14;0.00;;;0.00;;
1735;SDS011;865;53.672;10.250;2023-08-06T13:36:42;0.00;;;0.00;;
1735;SDS011;865;53.672;10.250;2023-08-06T13:39:09;0.00;;;0.00;;
1735;SDS011;865;53.672;10.250;2023-08-06T13:41:37;0.00;;;0.00;;
1735;SDS011;865;53.672;10.250;2023-08-06T13:44:05;0.00;;;0.00;;
1735;SDS011;865;53.672;10.250;2023-08-06T13:46:31;0.00;;;0.00;;
1735;SDS011;865;53.672;10.250;2023-08-06T13:48:58;0.00;;;0.00;;
1735;SDS011;865;53.672;10.250;2023-08-06T13:51:24;0.00;;;0.00;;
1735;SDS011;865;53.672;10.250;2023-08-06T13:53:51;0.00;;;0.00;;
1735;SDS011;865;53.672;10.250;2023-08-06T13:56:18;0.00;;;0.00;;
1735;SDS011;865;53.672;10.250;2023-08-06T13:58:45;0.00;;;0.00;;
1735;SDS011;865;53.672;10.250;2023-08-06T14:01:11;0.00;;;0.00;;
1735;SDS011;865;53.672;10.250;2023-08-06T14:03:42;0.00;;;0.00;;
1735;SDS011;865;53.672;10.250;2023-08-06T14:06:09;0.00;;;0.00;;
1735;SDS011;865;53.672;10.250;2023-08-06T14:08:35;0.00;;;0.00;;
1735;SDS011;865;53.672;10.250;2023-08-06T14:11:02;0.00;;;0.00;;
1735;SDS011;865;53.672;10.250;2023-08-06T14:13:28;0.00;;;0.00;;
1735;SDS011;865;53.672;10.250;2023-08-06T14:15:55;0.00;;;0.00;;
1735;SDS011;865;53.672;10.250;2023-08-06T14:18:21;0.00;;;0.00;;
1735;SDS011;865;53.672;10.250;2023-08-06T14:20:48;0.00;;;0.00;;
1735;SDS011;865;53.672;10.250;2023-08-06T14:23:14;0.00;;;0.00;;
1735;SDS011;865;53.672;10.250;2023-08-06T14:25:40;0.00;;;0.00;;
1735;SDS011;865;53.672;10.250;2023-08-06T14:28:07;0.00;;;0.00;;
1735;SDS011;865;53.672;10.250;2023-08-06T14:30:34;0.00;;;0.00;;
1735;SDS011;865;53.672;10.250;2023-08-06T14:33:01;0.00;;;0.00;;
1735;SDS011;865;53.672;10.250;2023-08-06T14:35:49;0.00;;;0.00;;
1735;SDS011;865;53.672;10.250;2023-08-06T14:38:15;0.00;;;0.00;;
1735;SDS011;865;53.672;10.250;2023-08-06T14:40:43;0.00;;;0.00;;
1735;SDS011;865;53.672;10.250;2023-08-06T14:43:10;0.00;;;0.00;;
1735;SDS011;865;53.672;10.250;2023-08-06T14:45:40;0.00;;;0.00;;
1735;SDS011;865;53.672;10.250;2023-08-06T14:48:07;0.00;;;0.00;;
1735;SDS011;865;53.672;10.250;2023-08-06T14:50:33;0.00;;;0.00;;
1735;SDS011;865;53.672;10.250;2023-08-06T14:53:00;0.00;;;0.00;;
1735;SDS011;865;53.672;10.250;2023-08-06T14:55:30;0.00;;;0.00;;
1735;SDS011;865;53.672;10.250;2023-08-06T14:57:57;0.00;;;0.00;;
1735;SDS011;865;53.672;10.250;2023-08-06T15:00:24;0.00;;;0.00;;
1735;SDS011;865;53.672;10.250;2023-08-06T15:02:51;0.00;;;0.00;;
1735;SDS011;865;53.672;10.250;2023-08-06T15:05:18;0.00;;;0.00;;
1735;SDS011;865;53.672;10.250;2023-08-06T15:07:45;0.00;;;0.00;;
1735;SDS011;865;53.672;10.250;2023-08-06T15:10:14;0.00;;;0.00;;
1735;SDS011;865;53.672;10.250;2023-08-06T15:12:53;0.00;;;0.00;;
1735;SDS011;865;53.672;10.250;2023-08-06T15:15:20;0.00;;;0.00;;
1735;SDS011;865;53.672;10.250;2023-08-06T15:17:48;0.00;;;0.00;;
1735;SDS011;865;53.672;10.250;2023-08-06T15:20:15;0.00;;;0.00;;
1735;SDS011;865;53.672;10.250;2023-08-06T15:22:42;0.00;;;0.00;;
1735;SDS011;865;53.672;10.250;2023-08-06T15:25:08;0.00;;;0.00;;
1735;SDS011;865;53.672;10.250;2023-08-06T15:27:35;0.00;;;0.00;;
1735;SDS011;865;53.672;10.250;2023-08-06T15:30:05;0.00;;;0.00;;
1735;SDS011;865;53.672;10.250;2023-08-06T15:32:32;0.00;;;0.00;;
1735;SDS011;865;53.672;10.250;2023-08-06T15:34:59;0.00;;;0.00;;
1735;SDS011;865;53.672;10.250;2023-08-06T15:37:26;0.00;;;0.00;;
1735;SDS011;865;53.672;10.250;2023-08-06T15:39:53;0.00;;;0.00;;